createdAt,value
2019-03-21T00:00:22.715Z,46.45
2019-03-21T00:02:51.138Z,48.02
2019-03-21T00:05:18.668Z,47.73
2019-03-21T00:07:46.612Z,48.80
2019-03-21T00:10:20.009Z,48.80
2019-03-21T00:12:47.970Z,48.50
2019-03-21T00:15:23.386Z,48.30
2019-03-21T00:17:55.810Z,48.33
2019-03-21T00:20:23.386Z,48.20
2019-03-21T00:22:50.915Z,48.92
2019-03-21T00:25:20.535Z,49.98
2019-03-21T00:27:48.054Z,50.05
2019-03-21T00:30:17.681Z,49.55
2019-03-21T00:32:45.734Z,49.33
2019-03-21T00:35:13.988Z,49.45
2019-03-21T00:37:42.907Z,50.90
2019-03-21T00:40:13.262Z,49.30
2019-03-21T00:42:40.882Z,50.58
2019-03-21T00:45:10.561Z,49.58
2019-03-21T00:47:38.132Z,52.83
2019-03-21T00:50:07.208Z,49.67
2019-03-21T00:52:34.705Z,47.40
2019-03-21T00:55:02.356Z,52.23
2019-03-21T00:57:29.998Z,51.53
2019-03-21T00:59:57.552Z,49.50
2019-03-21T01:02:25.342Z,50.63
2019-03-21T01:04:52.998Z,50.17
2019-03-21T01:07:21.270Z,48.28
2019-03-21T01:09:48.807Z,48.83
2019-03-21T01:12:16.350Z,51.68
2019-03-21T01:14:43.861Z,48.85
2019-03-21T01:17:11.394Z,51.40
2019-03-21T01:19:39.043Z,50.55
2019-03-21T01:22:06.563Z,51.77
2019-03-21T01:24:34.090Z,49.93
2019-03-21T01:27:01.970Z,51.95
2019-03-21T01:29:29.491Z,50.88
2019-03-21T01:31:57.639Z,50.98
2019-03-21T01:34:25.499Z,50.55
2019-03-21T01:36:53.569Z,50.10
2019-03-21T01:39:21.063Z,50.78
2019-03-21T01:41:48.595Z,52.43
2019-03-21T01:44:16.278Z,49.77
2019-03-21T01:46:44.180Z,46.25
2019-03-21T01:49:12.019Z,49.15
2019-03-21T01:51:39.558Z,49.18
2019-03-21T01:54:07.368Z,49.75
2019-03-21T01:56:36.115Z,49.00
2019-03-21T01:59:03.757Z,47.20
2019-03-21T02:01:31.330Z,47.93
2019-03-21T02:03:58.882Z,46.95
2019-03-21T02:06:26.414Z,47.25
2019-03-21T02:08:54.222Z,47.35
2019-03-21T02:11:21.805Z,47.73
2019-03-21T02:13:49.661Z,47.48
2019-03-21T02:16:17.258Z,48.10
2019-03-21T02:18:45.070Z,48.17
2019-03-21T02:21:13.554Z,47.30
2019-03-21T02:23:41.322Z,46.65
2019-03-21T02:26:08.925Z,45.60
2019-03-21T02:28:36.546Z,43.78
2019-03-21T02:31:04.149Z,43.85
2019-03-21T02:33:31.777Z,44.42
2019-03-21T02:35:59.371Z,43.68
2019-03-21T02:38:27.296Z,44.18
2019-03-21T02:40:55.223Z,45.90
2019-03-21T02:43:22.836Z,45.08
2019-03-21T02:45:50.398Z,44.67
2019-03-21T02:48:18.045Z,45.38
2019-03-21T02:50:46.683Z,42.65
2019-03-21T02:53:14.201Z,42.93
2019-03-21T02:55:41.824Z,44.80
2019-03-21T02:58:09.449Z,44.33
2019-03-21T03:00:37.251Z,41.55
2019-03-21T03:03:05.461Z,44.93
2019-03-21T03:05:33.264Z,44.50
2019-03-21T03:08:01.094Z,39.95
2019-03-21T03:10:31.676Z,41.73
2019-03-21T03:12:59.213Z,44.63
2019-03-21T03:15:28.209Z,41.95
2019-03-21T03:17:55.722Z,41.58
2019-03-21T03:20:23.556Z,41.02
2019-03-21T03:22:51.154Z,42.33
2019-03-21T03:25:19.008Z,39.53
2019-03-21T03:27:47.395Z,42.17
2019-03-21T03:30:17.360Z,42.88
2019-03-21T03:32:45.387Z,40.85
2019-03-21T03:35:13.315Z,38.48
2019-03-21T03:37:41.771Z,39.25
2019-03-21T03:40:12.200Z,40.95
2019-03-21T03:42:39.875Z,39.95
2019-03-21T03:45:11.166Z,39.33
2019-03-21T03:47:39.142Z,42.15
2019-03-21T03:50:07.505Z,38.83
2019-03-21T03:52:35.396Z,41.20
2019-03-21T03:55:03.525Z,41.02
2019-03-21T03:57:31.231Z,42.40
2019-03-21T03:59:59.198Z,41.90
2019-03-21T04:02:27.132Z,42.27
2019-03-21T04:04:55.061Z,39.88
2019-03-21T04:07:22.663Z,41.10
2019-03-21T04:09:50.691Z,39.27
2019-03-21T04:12:18.886Z,41.23
2019-03-21T04:14:46.503Z,42.67
2019-03-21T04:17:14.718Z,40.70
2019-03-21T04:19:42.350Z,37.42
2019-03-21T04:22:10.220Z,41.58
2019-03-21T04:24:37.944Z,38.17
2019-03-21T04:27:05.499Z,38.42
2019-03-21T04:29:33.071Z,40.00
2019-03-21T04:32:00.563Z,38.20
2019-03-21T04:34:28.821Z,38.25
2019-03-21T04:36:56.391Z,38.40
2019-03-21T04:39:23.989Z,36.80
2019-03-21T04:41:51.609Z,39.65
2019-03-21T04:44:19.283Z,39.75
2019-03-21T04:46:46.850Z,33.90
2019-03-21T04:49:14.679Z,35.55
2019-03-21T04:51:42.608Z,34.65
2019-03-21T04:54:10.403Z,33.73
2019-03-21T04:56:37.935Z,35.25
2019-03-21T04:59:05.554Z,31.15
2019-03-21T05:01:33.423Z,31.00
2019-03-21T05:04:01.017Z,30.37
2019-03-21T05:06:28.574Z,32.40
2019-03-21T05:08:56.139Z,32.03
2019-03-21T05:11:24.004Z,30.05
2019-03-21T05:13:52.159Z,30.68
2019-03-21T05:16:19.714Z,32.65
2019-03-21T05:18:47.654Z,30.80
2019-03-21T05:21:15.790Z,32.03
2019-03-21T05:23:43.307Z,32.25
2019-03-21T05:26:10.891Z,30.43
2019-03-21T05:28:39.091Z,29.82
2019-03-21T05:31:10.222Z,30.17
2019-03-21T05:33:37.754Z,31.37
2019-03-21T05:36:05.647Z,30.75
2019-03-21T05:38:33.281Z,29.67
2019-03-21T05:41:00.886Z,30.52
2019-03-21T05:43:35.089Z,30.35
2019-03-21T05:46:02.546Z,31.70
2019-03-21T05:48:30.077Z,31.07
2019-03-21T05:50:58.196Z,32.80
2019-03-21T05:53:25.909Z,31.30
2019-03-21T05:55:53.835Z,30.97
2019-03-21T05:58:21.387Z,31.27
2019-03-21T06:00:51.389Z,31.77
2019-03-21T06:03:22.238Z,31.95
2019-03-21T06:05:53.690Z,32.33
2019-03-21T06:08:24.837Z,30.82
2019-03-21T06:10:52.478Z,32.60
2019-03-21T06:13:20.346Z,32.70
2019-03-21T06:15:47.910Z,32.60
2019-03-21T06:18:37.687Z,34.33
2019-03-21T06:22:11.359Z,30.50
2019-03-21T06:24:47.855Z,29.50
2019-03-21T06:27:25.899Z,30.90
2019-03-21T06:29:53.742Z,29.25
2019-03-21T06:32:21.592Z,27.98
2019-03-21T06:34:49.435Z,29.57
2019-03-21T06:37:17.031Z,30.72
2019-03-21T06:39:44.938Z,30.52
2019-03-21T06:42:13.043Z,33.78
2019-03-21T06:44:40.829Z,32.42
2019-03-21T06:47:08.389Z,29.30
2019-03-21T06:49:35.946Z,29.75
2019-03-21T06:52:03.623Z,32.10
2019-03-21T06:54:31.475Z,31.42
2019-03-21T06:56:58.979Z,31.33
2019-03-21T06:59:26.521Z,28.07
2019-03-21T07:01:54.373Z,26.05
2019-03-21T07:04:22.991Z,27.75
2019-03-21T07:06:50.502Z,24.45
2019-03-21T07:09:19.195Z,23.73
2019-03-21T07:11:46.843Z,24.43
2019-03-21T07:14:14.359Z,24.65
2019-03-21T07:16:42.189Z,25.43
2019-03-21T07:19:09.720Z,24.75
2019-03-21T07:21:37.380Z,24.67
2019-03-21T07:24:05.010Z,22.93
2019-03-21T07:26:32.544Z,25.10
2019-03-21T07:29:00.406Z,24.57
2019-03-21T07:31:28.200Z,27.82
2019-03-21T07:33:56.104Z,25.90
2019-03-21T07:36:26.096Z,23.92
2019-03-21T07:38:53.030Z,26.33
2019-03-21T07:41:20.591Z,23.18
2019-03-21T07:43:49.186Z,27.90
2019-03-21T07:46:16.711Z,25.60
2019-03-21T07:48:44.246Z,27.02
2019-03-21T07:51:12.454Z,25.23
2019-03-21T07:53:39.967Z,27.10
2019-03-21T07:56:07.488Z,26.23
2019-03-21T07:58:35.076Z,24.63
2019-03-21T08:01:02.706Z,26.27
2019-03-21T08:03:30.251Z,26.55
2019-03-21T08:05:58.152Z,24.70
2019-03-21T08:08:25.666Z,25.30
2019-03-21T08:10:53.180Z,27.65
2019-03-21T08:13:20.760Z,26.52
2019-03-21T08:15:49.660Z,25.97
2019-03-21T08:18:17.207Z,24.40
2019-03-21T08:20:55.642Z,26.70
2019-03-21T08:23:14.150Z,25.02
2019-03-21T08:25:41.725Z,24.27
2019-03-21T08:28:09.327Z,26.02
2019-03-21T08:30:58.174Z,23.30
2019-03-21T08:33:25.767Z,20.08
2019-03-21T08:35:53.603Z,19.70
2019-03-21T08:38:21.127Z,18.67
2019-03-21T08:40:48.664Z,17.65
2019-03-21T08:43:16.263Z,16.85
2019-03-21T08:45:43.788Z,18.62
2019-03-21T08:48:11.727Z,17.40
2019-03-21T08:50:39.378Z,18.30
2019-03-21T08:53:07.303Z,18.32
2019-03-21T08:55:34.795Z,17.00
2019-03-21T08:58:02.447Z,17.95
2019-03-21T09:00:34.327Z,16.48
2019-03-21T09:02:59.799Z,16.97
2019-03-21T09:05:27.419Z,15.75
2019-03-21T09:07:54.970Z,15.75
2019-03-21T09:10:22.580Z,15.95
2019-03-21T09:12:50.236Z,15.80
2019-03-21T09:15:18.515Z,14.50
2019-03-21T09:17:46.027Z,15.10
2019-03-21T09:20:13.656Z,16.82
2019-03-21T09:22:41.532Z,15.23
2019-03-21T09:25:09.193Z,15.72
2019-03-21T09:27:36.732Z,15.32
2019-03-21T09:30:05.658Z,14.60
2019-03-21T09:32:33.176Z,15.80
2019-03-21T09:35:00.739Z,14.78
2019-03-21T09:37:28.965Z,14.50
2019-03-21T09:39:56.571Z,15.50
2019-03-21T09:42:24.094Z,14.03
2019-03-21T09:44:51.588Z,14.60
2019-03-21T09:47:19.697Z,14.68
2019-03-21T09:49:47.198Z,15.68
2019-03-21T09:52:15.339Z,15.53
2019-03-21T09:54:43.207Z,14.65
2019-03-21T09:57:10.717Z,14.80
2019-03-21T09:59:39.650Z,15.35
2019-03-21T10:02:07.196Z,15.13
2019-03-21T10:04:34.956Z,14.43
2019-03-21T10:07:02.746Z,15.75
2019-03-21T10:09:30.692Z,14.75
2019-03-21T10:11:58.271Z,14.80
2019-03-21T10:14:26.100Z,15.15
2019-03-21T10:16:54.843Z,17.27
2019-03-21T10:19:22.690Z,16.62
2019-03-21T10:21:50.522Z,16.87
2019-03-21T10:24:18.188Z,15.68
2019-03-21T10:26:45.945Z,16.10
2019-03-21T10:29:13.821Z,15.65
2019-03-21T10:31:41.846Z,15.20
2019-03-21T10:34:09.461Z,17.20
2019-03-21T10:36:38.057Z,17.80
2019-03-21T10:39:06.474Z,16.55
2019-03-21T10:41:33.975Z,16.55
2019-03-21T10:44:01.554Z,16.60
2019-03-21T10:46:29.364Z,16.80
2019-03-21T10:48:57.319Z,17.55
2019-03-21T10:51:24.851Z,17.25
2019-03-21T10:53:52.400Z,16.12
2019-03-21T10:56:19.994Z,16.60
2019-03-21T10:58:47.567Z,16.93
2019-03-21T11:01:15.111Z,17.85
2019-03-21T11:03:42.618Z,18.82
2019-03-21T11:06:10.155Z,18.32
2019-03-21T11:08:37.943Z,17.67
2019-03-21T11:11:05.772Z,17.37
2019-03-21T11:13:33.650Z,18.40
2019-03-21T11:16:01.257Z,19.20
2019-03-21T11:18:36.035Z,19.10
2019-03-21T11:20:58.780Z,18.77
2019-03-21T11:23:26.621Z,17.75
2019-03-21T11:25:54.627Z,17.07
2019-03-21T11:28:22.337Z,17.57
2019-03-21T11:30:51.258Z,19.23
2019-03-21T11:33:18.767Z,18.82
2019-03-21T11:35:46.278Z,18.20
2019-03-21T11:38:14.067Z,17.10
2019-03-21T11:40:41.580Z,17.57
2019-03-21T11:43:13.801Z,17.50
2019-03-21T11:45:41.420Z,16.93
2019-03-21T11:48:09.452Z,17.17
2019-03-21T11:50:37.503Z,16.90
2019-03-21T11:53:05.356Z,18.00
2019-03-21T11:55:32.925Z,16.02
2019-03-21T11:58:01.194Z,17.00
2019-03-21T12:00:28.730Z,17.90
2019-03-21T12:02:56.607Z,18.05
2019-03-21T12:05:24.114Z,17.77
2019-03-21T12:07:51.674Z,17.48
2019-03-21T12:10:19.560Z,17.25
2019-03-21T12:12:47.596Z,16.42
2019-03-21T12:15:15.733Z,17.82
2019-03-21T12:17:43.242Z,17.30
2019-03-21T12:20:11.418Z,14.63
2019-03-21T12:22:39.952Z,15.65
2019-03-21T12:25:08.167Z,16.60
2019-03-21T12:27:36.023Z,16.50
2019-03-21T12:30:05.536Z,15.43
2019-03-21T12:32:33.128Z,15.43
2019-03-21T12:35:00.673Z,14.70
2019-03-21T12:37:28.255Z,13.65
2019-03-21T12:39:55.787Z,14.35
2019-03-21T12:42:23.719Z,14.35
2019-03-21T12:44:51.327Z,13.22
2019-03-21T12:47:30.608Z,13.25
2019-03-21T12:49:48.308Z,13.55
2019-03-21T12:52:15.785Z,13.20
2019-03-21T12:54:43.342Z,13.78
2019-03-21T12:57:10.959Z,13.70
2019-03-21T12:59:38.437Z,13.70
2019-03-21T13:02:06.047Z,13.22
2019-03-21T13:04:34.094Z,13.60
2019-03-21T13:07:02.167Z,13.88
2019-03-21T13:09:29.658Z,14.15
2019-03-21T13:11:57.179Z,14.45
2019-03-21T13:14:25.382Z,14.65
2019-03-21T13:16:53.795Z,14.60
2019-03-21T13:19:21.601Z,15.45
2019-03-21T13:21:49.147Z,14.80
2019-03-21T13:24:19.443Z,15.60
2019-03-21T13:26:46.533Z,14.98
2019-03-21T13:29:14.198Z,17.42
2019-03-21T13:31:41.894Z,15.28
2019-03-21T13:34:09.548Z,15.13
2019-03-21T13:36:37.448Z,15.28
2019-03-21T13:39:06.554Z,14.85
2019-03-21T13:41:34.143Z,15.40
2019-03-21T13:44:02.081Z,15.28
2019-03-21T13:46:29.919Z,15.70
2019-03-21T13:48:57.447Z,15.93
2019-03-21T13:51:25.826Z,15.45
2019-03-21T13:53:53.694Z,15.23
2019-03-21T13:56:21.863Z,15.70
2019-03-21T13:58:49.734Z,14.80
2019-03-21T14:01:17.263Z,15.23
2019-03-21T14:03:45.527Z,15.78
2019-03-21T14:06:13.457Z,15.45
2019-03-21T14:08:40.970Z,17.23
2019-03-21T14:11:08.487Z,16.73
2019-03-21T14:13:36.367Z,16.42
2019-03-21T14:16:04.097Z,16.60
2019-03-21T14:18:31.862Z,15.85
2019-03-21T14:20:59.886Z,15.72
2019-03-21T14:23:27.587Z,17.77
2019-03-21T14:25:55.364Z,15.88
2019-03-21T14:28:22.913Z,14.65
2019-03-21T14:30:50.716Z,16.97
2019-03-21T14:33:18.503Z,16.02
2019-03-21T14:35:46.267Z,17.10
2019-03-21T14:38:21.710Z,17.07
2019-03-21T14:40:43.539Z,17.15
2019-03-21T14:43:11.071Z,18.15
2019-03-21T14:45:38.662Z,15.88
2019-03-21T14:48:06.322Z,16.07
2019-03-21T14:50:33.950Z,16.52
2019-03-21T14:53:01.477Z,16.25
2019-03-21T14:55:28.968Z,15.08
2019-03-21T14:57:56.510Z,14.50
2019-03-21T15:00:24.122Z,14.13
2019-03-21T15:02:51.761Z,14.93
2019-03-21T15:05:19.351Z,16.02
2019-03-21T15:07:47.074Z,14.45
2019-03-21T15:10:14.946Z,14.50
2019-03-21T15:12:43.479Z,16.02
2019-03-21T15:15:12.032Z,15.25
2019-03-21T15:17:39.543Z,14.73
2019-03-21T15:20:09.595Z,15.13
2019-03-21T15:22:37.234Z,14.87
2019-03-21T15:25:05.610Z,15.55
2019-03-21T15:27:33.250Z,15.90
2019-03-21T15:30:00.854Z,15.48
2019-03-21T15:32:28.488Z,16.23
2019-03-21T15:34:55.971Z,16.10
2019-03-21T15:37:23.819Z,15.93
2019-03-21T15:39:51.922Z,14.80
2019-03-21T15:42:19.458Z,15.08
2019-03-21T15:44:46.966Z,15.00
2019-03-21T15:47:14.467Z,15.03
2019-03-21T15:49:42.392Z,14.80
2019-03-21T15:52:10.010Z,14.83
2019-03-21T15:54:37.523Z,15.45
2019-03-21T15:57:05.387Z,16.42
2019-03-21T15:59:33.337Z,16.95
2019-03-21T16:02:01.163Z,16.52
2019-03-21T16:04:29.234Z,15.60
2019-03-21T16:06:56.873Z,15.30
2019-03-21T16:09:24.514Z,15.10
2019-03-21T16:11:52.062Z,16.15
2019-03-21T16:14:19.643Z,15.38
2019-03-21T16:16:47.194Z,15.60
2019-03-21T16:19:14.741Z,15.85
2019-03-21T16:21:42.709Z,15.32
2019-03-21T16:24:10.983Z,15.60
2019-03-21T16:26:38.673Z,16.20
2019-03-21T16:29:06.332Z,15.93
2019-03-21T16:31:34.151Z,16.80
2019-03-21T16:34:01.846Z,16.02
2019-03-21T16:36:29.489Z,15.75
2019-03-21T16:38:57.035Z,15.78
2019-03-21T16:41:24.727Z,16.00
2019-03-21T16:43:52.590Z,15.90
2019-03-21T16:46:20.518Z,15.25
2019-03-21T16:48:48.643Z,17.42
2019-03-21T16:51:16.220Z,16.25
2019-03-21T16:53:44.184Z,16.70
2019-03-21T16:56:12.302Z,16.97
2019-03-21T16:58:40.326Z,17.95
2019-03-21T17:01:08.295Z,16.93
2019-03-21T17:03:36.252Z,17.05
2019-03-21T17:06:03.963Z,16.97
2019-03-21T17:08:31.913Z,17.37
2019-03-21T17:10:59.593Z,16.32
2019-03-21T17:13:27.545Z,16.40
2019-03-21T17:15:55.183Z,16.17
2019-03-21T17:18:23.177Z,16.57
2019-03-21T17:20:50.747Z,17.52
2019-03-21T17:23:18.430Z,16.30
2019-03-21T17:25:46.062Z,17.62
2019-03-21T17:28:13.869Z,16.97
2019-03-21T17:30:41.523Z,17.45
2019-03-21T17:33:09.720Z,16.90
2019-03-21T17:35:37.430Z,16.32
2019-03-21T17:38:05.093Z,16.73
2019-03-21T17:40:32.690Z,16.82
2019-03-21T17:43:01.813Z,18.07
2019-03-21T17:45:29.767Z,17.75
2019-03-21T17:47:57.343Z,19.32
2019-03-21T17:50:24.955Z,17.60
2019-03-21T17:52:52.571Z,19.48
2019-03-21T17:55:20.836Z,18.17
2019-03-21T17:57:48.719Z,18.10
2019-03-21T18:00:18.327Z,17.98
2019-03-21T18:02:46.045Z,18.50
2019-03-21T18:05:14.280Z,19.32
2019-03-21T18:07:41.878Z,18.40
2019-03-21T18:10:25.287Z,18.67
2019-03-21T18:12:52.887Z,18.07
2019-03-21T18:15:20.419Z,21.25
2019-03-21T18:17:48.137Z,18.57
2019-03-21T18:20:15.797Z,17.50
2019-03-21T18:22:45.645Z,18.07
2019-03-21T18:25:13.006Z,20.75
2019-03-21T18:27:40.676Z,18.37
2019-03-21T18:30:09.826Z,20.57
2019-03-21T18:32:37.333Z,19.67
2019-03-21T18:35:07.047Z,18.27
2019-03-21T18:37:35.152Z,19.23
2019-03-21T18:40:03.664Z,17.30
2019-03-21T18:42:31.391Z,19.07
2019-03-21T18:44:58.909Z,18.25
2019-03-21T18:47:26.579Z,21.07
2019-03-21T18:49:54.138Z,20.17
2019-03-21T18:52:21.661Z,22.95
2019-03-21T18:54:49.162Z,20.88
2019-03-21T18:57:16.731Z,21.27
2019-03-21T18:59:44.283Z,22.42
2019-03-21T19:02:11.863Z,22.58
2019-03-21T19:04:39.342Z,21.25
2019-03-21T19:07:07.084Z,20.80
2019-03-21T19:09:35.138Z,21.42
2019-03-21T19:12:03.013Z,22.30
2019-03-21T19:14:30.824Z,22.42
2019-03-21T19:16:58.700Z,25.05
2019-03-21T19:19:26.751Z,21.07
2019-03-21T19:21:54.356Z,21.10
2019-03-21T19:24:22.033Z,21.05
2019-03-21T19:26:50.144Z,22.17
2019-03-21T19:29:18.040Z,21.62
2019-03-21T19:31:45.616Z,21.02
2019-03-21T19:34:13.281Z,21.95
2019-03-21T19:36:40.901Z,21.45
2019-03-21T19:39:09.464Z,20.08
2019-03-21T19:41:37.031Z,21.05
2019-03-21T19:44:04.768Z,21.93
2019-03-21T19:46:32.339Z,19.98
2019-03-21T19:49:00.576Z,23.15
2019-03-21T19:51:28.172Z,22.17
2019-03-21T19:53:55.730Z,20.60
2019-03-21T19:56:23.599Z,22.27
2019-03-21T19:58:51.537Z,23.07
2019-03-21T20:01:19.180Z,23.07
2019-03-21T20:03:47.443Z,23.32
2019-03-21T20:06:15.141Z,22.87
2019-03-21T20:08:42.999Z,23.80
2019-03-21T20:11:10.775Z,24.15
2019-03-21T20:13:38.755Z,24.60
2019-03-21T20:16:06.678Z,24.63
2019-03-21T20:18:34.685Z,23.98
2019-03-21T20:21:02.530Z,24.95
2019-03-21T20:23:30.145Z,23.42
2019-03-21T20:25:57.979Z,23.30
2019-03-21T20:28:25.494Z,26.90
2019-03-21T20:30:53.396Z,26.05
2019-03-21T20:33:20.941Z,25.60
2019-03-21T20:35:48.739Z,26.12
2019-03-21T20:38:16.426Z,25.90
2019-03-21T20:40:44.432Z,25.12
2019-03-21T20:43:11.970Z,26.70
2019-03-21T20:45:39.584Z,25.70
2019-03-21T20:48:07.135Z,26.23
2019-03-21T20:50:34.855Z,24.82
2019-03-21T20:53:02.549Z,26.02
2019-03-21T20:55:30.267Z,25.62
2019-03-21T20:57:57.977Z,24.50
2019-03-21T21:00:25.914Z,24.77
2019-03-21T21:02:53.654Z,24.65
2019-03-21T21:05:23.312Z,26.57
2019-03-21T21:07:52.246Z,24.23
2019-03-21T21:10:19.883Z,25.43
2019-03-21T21:12:47.856Z,25.92
2019-03-21T21:15:15.630Z,25.12
2019-03-21T21:17:43.394Z,26.00
2019-03-21T21:20:12.769Z,24.72
2019-03-21T21:22:40.378Z,23.18
2019-03-21T21:25:08.499Z,24.65
2019-03-21T21:27:48.179Z,24.40
2019-03-21T21:30:07.119Z,24.90
2019-03-21T21:32:34.918Z,27.07
2019-03-21T21:35:02.996Z,27.55
2019-03-21T21:37:30.508Z,26.40
2019-03-21T21:39:58.226Z,26.93
2019-03-21T21:42:25.855Z,27.77
2019-03-21T21:44:53.751Z,27.58
2019-03-21T21:47:21.637Z,28.10
2019-03-21T21:49:49.513Z,28.05
2019-03-21T21:52:17.226Z,30.05
2019-03-21T21:54:45.213Z,29.18
2019-03-21T21:57:12.740Z,26.50
2019-03-21T21:59:40.278Z,27.85
2019-03-21T22:02:07.819Z,28.07
2019-03-21T22:04:35.560Z,29.05
2019-03-21T22:07:03.236Z,27.30
2019-03-21T22:09:30.786Z,28.35
2019-03-21T22:11:58.323Z,29.52
2019-03-21T22:14:26.521Z,28.35
2019-03-21T22:16:54.205Z,26.65
2019-03-21T22:19:23.374Z,30.40
2019-03-21T22:21:53.255Z,24.72
2019-03-21T22:24:20.816Z,23.80
2019-03-21T22:26:48.374Z,23.50
2019-03-21T22:29:15.893Z,24.85
2019-03-21T22:31:43.390Z,25.88
2019-03-21T22:34:10.963Z,24.77
2019-03-21T22:36:48.876Z,25.65
2019-03-21T22:39:08.017Z,26.82
2019-03-21T22:41:35.707Z,25.30
2019-03-21T22:44:03.386Z,21.70
2019-03-21T22:46:30.978Z,22.32
2019-03-21T22:48:58.479Z,23.45
2019-03-21T22:51:26.994Z,22.15
2019-03-21T22:53:54.590Z,22.73
2019-03-21T22:56:22.063Z,23.27
2019-03-21T22:58:49.545Z,23.15
2019-03-21T23:01:17.463Z,22.45
2019-03-21T23:03:45.440Z,24.10
2019-03-21T23:06:13.445Z,22.52
2019-03-21T23:08:41.076Z,24.20
2019-03-21T23:11:08.569Z,24.60
2019-03-21T23:13:36.148Z,24.40
2019-03-21T23:16:03.751Z,23.85
2019-03-21T23:18:31.520Z,25.05
2019-03-21T23:20:59.128Z,23.42
2019-03-21T23:23:26.635Z,27.13
2019-03-21T23:25:55.222Z,24.37
2019-03-21T23:28:23.214Z,25.60
2019-03-21T23:30:50.703Z,26.50
2019-03-21T23:33:18.211Z,26.50
2019-03-21T23:35:45.734Z,27.55
2019-03-21T23:38:13.226Z,26.93
2019-03-21T23:40:40.722Z,26.73
2019-03-21T23:43:08.244Z,26.90
2019-03-21T23:45:35.782Z,27.75
2019-03-21T23:48:03.403Z,25.70
2019-03-21T23:50:30.886Z,26.40
2019-03-21T23:52:58.386Z,27.30
2019-03-21T23:55:26.188Z,25.82
2019-03-21T23:57:53.724Z,25.40
